Time;durP1;ratioP1;P1;durP2;ratioP2;P2;SDS_P1;SDS_P2;PMS_P1;PMS_P2;Temp;Humidity;BMP_temperature;BMP_pressure;BME280_temperature;BME280_humidity;BME280_pressure;Samples;Min_cycle;Max_cycle;Signal;HPM_P1;HPM_P2
2021/05/26 00:00:50;;;;;;;;;;;25.20;95.50;;;;;;5070770;28;19909;-51
2021/05/26 00:03:16;;;;;;;;;;;25.20;95.70;;;;;;5063766;28;19912;-53
2021/05/26 00:05:42;;;;;;;;;;;25.20;95.80;;;;;;5055573;28;19909;-52
2021/05/26 00:08:08;;;;;;;;;;;25.20;95.80;;;;;;5066351;28;19919;-52
2021/05/26 00:10:35;;;;;;;;;;;25.20;95.80;;;;;;5076021;28;19911;-49
2021/05/26 00:13:01;;;;;;;;;;;25.20;96.10;;;;;;5086248;28;19912;-54
2021/05/26 00:15:27;;;;;;;;;;;25.20;95.90;;;;;;5055236;28;19905;-58
2021/05/26 00:17:53;;;;;;;;;;;25.10;95.80;;;;;;5066403;28;19904;-50
2021/05/26 00:20:19;;;;;;;;;;;25.10;95.80;;;;;;5066183;28;20260;-49
2021/05/26 00:22:46;;;;;;;;;;;25.10;95.90;;;;;;5066109;28;19904;-52
2021/05/26 00:25:12;;;;;;;;;;;25.10;95.80;;;;;;5065926;28;19912;-50
2021/05/26 00:27:39;;;;;;;;;;;25.10;95.80;;;;;;5066021;28;19905;-53
2021/05/26 00:30:05;;;;;;;;;;;25.10;95.80;;;;;;5065774;28;19948;-49
2021/05/26 00:32:32;;;;;;;;;;;25.10;95.80;;;;;;5047787;28;20204;-55
2021/05/26 00:34:58;;;;;;;;;;;25.10;95.90;;;;;;5066365;28;20213;-51
2021/05/26 00:37:24;;;;;;;;;;;25.10;96.00;;;;;;5065699;28;20133;-47
2021/05/26 00:39:51;;;;;;;;;;;25.10;96.00;;;;;;5066207;28;19913;-51
2021/05/26 00:42:21;;;;;;;;;;;25.10;95.90;;;;;;5065503;28;19971;-53
2021/05/26 00:44:56;;;;;;;;;;;25.10;95.90;;;;;;5065292;28;19959;-48
2021/05/26 00:47:42;;;;;;;;;;;25.10;95.90;;;;;;5066190;28;19972;-45
2021/05/26 00:50:10;;;;;;;;;;;25.10;95.90;;;;;;5065240;28;19923;-47
2021/05/26 00:52:37;;;;;;;;;;;25.10;95.70;;;;;;5065873;28;19905;-47
2021/05/26 00:55:06;;;;;;;;;;;25.10;95.60;;;;;;5063802;28;20117;-51
2021/05/26 00:57:33;;;;;;;;;;;25.10;95.50;;;;;;5084263;28;19916;-50
2021/05/26 00:59:59;;;;;;;;;;;25.10;95.50;;;;;;5079539;28;19912;-48
2021/05/26 01:02:26;;;;;;;;;;;25.00;95.50;;;;;;5068263;28;19915;-50
2021/05/26 01:04:52;;;;;;;;;;;25.00;95.60;;;;;;5076206;28;19919;-46
2021/05/26 01:07:18;;;;;;;;;;;25.00;95.60;;;;;;5076415;28;19948;-47
2021/05/26 01:09:44;;;;;;;;;;;25.00;95.40;;;;;;5074653;28;19959;-47
2021/05/26 01:12:11;;;;;;;;;;;25.00;95.30;;;;;;5074107;28;19975;-47
2021/05/26 01:14:37;;;;;;;;;;;25.00;95.30;;;;;;5076382;28;19924;-48
2021/05/26 01:17:03;;;;;;;;;;;25.00;95.30;;;;;;5074429;28;19916;-55
2021/05/26 01:19:30;;;;;;;;;;;24.90;95.30;;;;;;5077013;28;19919;-51
2021/05/26 01:21:56;;;;;;;;;;;24.90;95.20;;;;;;5058155;28;19904;-50
2021/05/26 01:24:22;;;;;;;;;;;24.90;95.20;;;;;;5065472;28;19984;-54
2021/05/26 01:26:49;;;;;;;;;;;24.90;95.20;;;;;;5069606;28;19958;-48
2021/05/26 01:29:15;;;;;;;;;;;24.90;95.20;;;;;;5075105;28;20105;-48
2021/05/26 01:31:42;;;;;;;;;;;24.90;95.40;;;;;;5073707;28;19922;-47
2021/05/26 01:34:09;;;;;;;;;;;24.90;95.50;;;;;;5046672;28;19912;-49
2021/05/26 01:36:35;;;;;;;;;;;24.90;95.50;;;;;;5065047;28;19920;-50
2021/05/26 01:39:03;;;;;;;;;;;24.80;95.50;;;;;;5063431;28;19905;-47
2021/05/26 01:41:29;;;;;;;;;;;24.80;95.50;;;;;;5064723;28;19948;-50
2021/05/26 01:43:55;;;;;;;;;;;24.80;95.30;;;;;;5063750;28;19905;-46
2021/05/26 01:46:22;;;;;;;;;;;24.80;95.30;;;;;;5064942;28;19913;-51
2021/05/26 01:48:48;;;;;;;;;;;24.80;95.30;;;;;;5065532;28;19917;-54
2021/05/26 01:51:15;;;;;;;;;;;24.80;95.20;;;;;;5073985;28;19936;-51
2021/05/26 01:53:41;;;;;;;;;;;24.80;95.30;;;;;;5066986;28;19923;-53
2021/05/26 01:56:21;;;;;;;;;;;24.80;95.10;;;;;;5055756;28;19954;-50
2021/05/26 01:58:51;;;;;;;;;;;24.80;95.20;;;;;;5046492;28;19912;-52
2021/05/26 02:01:18;;;;;;;;;;;24.80;95.20;;;;;;5064502;28;19940;-48
2021/05/26 02:03:45;;;;;;;;;;;24.70;95.30;;;;;;5063986;28;19936;-55
2021/05/26 02:06:12;;;;;;;;;;;24.70;95.20;;;;;;5064453;28;19912;-49
2021/05/26 02:08:39;;;;;;;;;;;24.70;95.10;;;;;;5064270;28;19912;-52
2021/05/26 02:14:45;;;;;;;12.15;2.70;;;24.70;95.20;;;;;;5121871;28;20096;-43
2021/05/26 02:17:13;;;;;;;11.50;2.70;;;24.70;95.20;;;;;;5121155;28;20058;-46
2021/05/26 02:19:39;;;;;;;5.57;2.83;;;24.80;95.20;;;;;;5121743;28;20023;-45
2021/05/26 02:22:06;;;;;;;11.35;3.08;;;24.80;95.10;;;;;;5121456;28;20020;-46
2021/05/26 02:24:33;;;;;;;10.50;2.80;;;24.80;95.20;;;;;;5121506;28;20342;-52
2021/05/26 02:26:59;;;;;;;10.77;2.92;;;24.80;95.20;;;;;;5116179;28;20036;-44
2021/05/26 02:29:26;;;;;;;11.70;3.60;;;24.80;95.10;;;;;;5121018;28;20323;-45
2021/05/26 02:31:53;;;;;;;10.32;4.72;;;24.80;95.10;;;;;;5107712;28;20121;-46
2021/05/26 02:34:19;;;;;;;;;;;24.80;95.10;;;;;;5121217;28;20011;-47
2021/05/26 02:36:45;;;;;;;;;;;24.80;95.10;;;;;;5118981;28;19919;-44
2021/05/26 02:39:11;;;;;;;;;;;24.80;95.10;;;;;;5119839;28;19946;-44
2021/05/26 02:41:38;;;;;;;;;;;24.80;95.00;;;;;;5121494;28;19912;-45
2021/05/26 02:44:05;;;;;;;;;;;24.80;95.00;;;;;;5121177;28;19916;-47
2021/05/26 02:46:31;;;;;;;;;;;24.80;95.00;;;;;;5121577;28;20216;-44
2021/05/26 02:48:57;;;;;;;;;;;24.80;95.20;;;;;;5121317;28;19904;-50
2021/05/26 02:51:23;;;;;;;;;;;24.80;94.90;;;;;;5119699;28;19924;-47
2021/05/26 02:53:49;;;;;;;;;;;24.80;94.90;;;;;;5121607;28;20014;-45
2021/05/26 02:56:16;;;;;;;;;;;24.70;94.90;;;;;;5121424;28;19957;-55
2021/05/26 02:58:42;;;;;;;;;;;24.80;94.90;;;;;;5120103;28;19915;-47
2021/05/26 03:01:08;;;;;;;;;;;24.70;94.80;;;;;;5121377;28;20189;-48
2021/05/26 03:03:34;;;;;;;;;;;24.80;94.90;;;;;;5121080;28;19911;-49
2021/05/26 03:06:01;;;;;;;;;;;24.70;94.80;;;;;;5121076;28;19919;-55
2021/05/26 03:08:27;;;;;;;;;;;24.70;94.80;;;;;;5121218;28;19904;-46
2021/05/26 03:10:58;;;;;;;;;;;24.70;94.80;;;;;;5120079;28;19987;-45
2021/05/26 03:13:25;;;;;;;;;;;24.70;94.80;;;;;;5118072;28;19915;-49
2021/05/26 03:15:52;;;;;;;;;;;24.70;94.70;;;;;;5117754;28;19919;-48
2021/05/26 03:18:19;;;;;;;;;;;24.70;94.70;;;;;;5120517;28;19987;-51
2021/05/26 03:20:46;;;;;;;;;;;24.70;94.70;;;;;;5120776;28;19916;-45
2021/05/26 03:23:13;;;;;;;;;;;24.60;94.60;;;;;;5106354;28;19916;-44
2021/05/26 03:25:42;;;;;;;;;;;24.60;94.60;;;;;;5106561;28;19958;-44
2021/05/26 03:28:08;;;;;;;;;;;24.60;94.50;;;;;;5106492;28;19916;-45
2021/05/26 03:30:36;;;;;;;;;;;24.60;94.60;;;;;;5106577;28;19916;-48
2021/05/26 03:33:04;;;;;;;;;;;24.60;94.50;;;;;;5106411;28;20092;-50
2021/05/26 03:35:32;;;;;;;;;;;24.60;94.50;;;;;;5107068;28;19912;-47
2021/05/26 03:37:58;;;;;;;;;;;24.60;94.50;;;;;;5107054;28;19953;-45
2021/05/26 03:40:24;;;;;;;;;;;24.60;94.50;;;;;;5106955;28;20189;-44
2021/05/26 03:42:50;;;;;;;;;;;24.70;94.50;;;;;;5106902;28;20146;-47
2021/05/26 03:45:17;;;;;;;;;;;24.70;94.40;;;;;;5105714;28;19912;-55
2021/05/26 03:47:43;;;;;;;;;;;24.70;94.30;;;;;;5105323;28;19950;-49
2021/05/26 03:50:13;;;;;;;;;;;24.70;94.30;;;;;;5106576;28;19928;-48
2021/05/26 03:52:40;;;;;;;;;;;24.80;94.20;;;;;;5106989;28;20200;-46
2021/05/26 03:55:08;;;;;;;;;;;24.80;94.20;;;;;;5107135;28;20112;-49
2021/05/26 03:57:34;;;;;;;;;;;24.80;94.10;;;;;;5105957;28;19904;-49
2021/05/26 04:00:00;;;;;;;;;;;24.80;94.10;;;;;;5106599;28;20266;-49
2021/05/26 04:02:26;;;;;;;;;;;24.80;94.00;;;;;;5106937;28;19966;-47
2021/05/26 04:04:53;;;;;;;;;;;24.80;94.00;;;;;;5106461;28;19991;-45
2021/05/26 04:07:19;;;;;;;;;;;24.80;93.90;;;;;;5106700;28;19908;-45
2021/05/26 04:09:46;;;;;;;;;;;24.80;93.90;;;;;;5109397;28;19912;-53
2021/05/26 04:12:12;;;;;;;;;;;24.80;93.90;;;;;;5108095;28;20131;-45
2021/05/26 04:14:38;;;;;;;;;;;24.80;93.80;;;;;;5126181;28;19904;-52
2021/05/26 04:17:04;;;;;;;;;;;24.80;93.80;;;;;;5126650;28;19904;-49
2021/05/26 04:19:30;;;;;;;;;;;24.80;93.90;;;;;;5125944;28;19908;-50
2021/05/26 04:21:57;;;;;;;;;;;24.80;93.70;;;;;;5126772;28;19908;-49
2021/05/26 04:24:23;;;;;;;;;;;24.90;93.80;;;;;;5126539;28;19904;-56
2021/05/26 04:26:49;;;;;;;;;;;24.80;93.80;;;;;;5126245;28;19980;-46
2021/05/26 04:29:17;;;;;;;;;;;24.80;93.70;;;;;;5126017;28;19908;-52
2021/05/26 04:31:43;;;;;;;;;;;24.80;93.70;;;;;;5126481;28;19918;-47
2021/05/26 04:34:10;;;;;;;;;;;24.90;93.70;;;;;;5125055;28;19914;-47
2021/05/26 04:36:36;;;;;;;;;;;24.80;93.60;;;;;;5126712;28;19915;-47
2021/05/26 04:39:02;;;;;;;;;;;24.80;93.70;;;;;;5126244;28;19946;-55
2021/05/26 04:41:28;;;;;;;;;;;24.80;93.60;;;;;;5126229;28;19974;-46
2021/05/26 04:43:54;;;;;;;;;;;24.90;93.60;;;;;;5126198;28;19908;-48
2021/05/26 04:46:21;;;;;;;;;;;24.80;93.60;;;;;;5126488;28;19908;-44
2021/05/26 04:48:47;;;;;;;;;;;24.80;93.60;;;;;;5107711;28;19916;-46
2021/05/26 04:51:13;;;;;;;;;;;24.80;93.60;;;;;;5126340;28;19927;-54
2021/05/26 04:53:39;;;;;;;;;;;24.80;93.60;;;;;;5125956;28;20081;-46
2021/05/26 04:56:05;;;;;;;;;;;24.80;93.60;;;;;;5107892;28;19908;-46
2021/05/26 04:58:32;;;;;;;;;;;24.80;93.60;;;;;;5125720;28;20200;-44
2021/05/26 05:00:58;;;;;;;;;;;24.80;93.50;;;;;;5126309;28;19907;-46
2021/05/26 05:03:24;;;;;;;;;;;24.80;93.60;;;;;;5125821;28;19907;-45
2021/05/26 05:05:50;;;;;;;;;;;24.80;93.50;;;;;;5126046;28;20248;-46
2021/05/26 05:08:16;;;;;;;;;;;24.80;93.60;;;;;;5125847;28;20104;-48
2021/05/26 05:10:42;;;;;;;;;;;24.80;93.50;;;;;;5125423;28;19963;-46
2021/05/26 05:13:09;;;;;;;;;;;24.80;93.50;;;;;;5125489;28;19904;-46
2021/05/26 05:15:35;;;;;;;;;;;24.80;93.50;;;;;;5126041;28;20078;-49
2021/05/26 05:18:01;;;;;;;;;;;24.80;93.50;;;;;;5125510;28;19904;-53
2021/05/26 05:20:27;;;;;;;;;;;24.80;93.50;;;;;;5125326;28;19912;-47
2021/05/26 05:22:54;;;;;;;;;;;24.80;93.50;;;;;;5125497;28;19911;-45
2021/05/26 05:25:21;;;;;;;;;;;24.80;93.50;;;;;;5125657;28;19912;-46
2021/05/26 05:27:47;;;;;;;;;;;24.80;93.50;;;;;;5125281;28;19903;-51
2021/05/26 05:30:14;;;;;;;;;;;24.80;93.50;;;;;;5125422;28;20101;-51
2021/05/26 05:32:40;;;;;;;;;;;24.80;93.50;;;;;;5125283;28;19911;-45
2021/05/26 05:35:07;;;;;;;;;;;24.80;93.50;;;;;;5125253;28;19916;-48
2021/05/26 05:37:33;;;;;;;;;;;24.90;93.50;;;;;;5125245;28;19903;-47
2021/05/26 05:40:00;;;;;;;;;;;24.80;93.50;;;;;;5125443;28;20101;-44
2021/05/26 05:42:29;;;;;;;;;;;24.80;93.50;;;;;;5125022;28;20188;-53
2021/05/26 05:44:55;;;;;;;;;;;24.80;93.50;;;;;;5125348;28;19919;-46
2021/05/26 05:47:22;;;;;;;;;;;24.80;93.50;;;;;;5125294;28;19954;-49
2021/05/26 05:49:48;;;;;;;;;;;24.80;93.50;;;;;;5125306;28;19939;-52
2021/05/26 05:52:15;;;;;;;;;;;24.80;93.50;;;;;;5125237;28;20171;-48
2021/05/26 05:54:41;;;;;;;;;;;24.80;93.50;;;;;;5106816;28;20160;-45
2021/05/26 05:57:08;;;;;;;;;;;24.80;93.50;;;;;;5124925;28;20074;-48
2021/05/26 05:59:34;;;;;;;;;;;24.80;93.50;;;;;;5124772;28;19904;-46
2021/05/26 06:02:00;;;;;;;;;;;24.80;93.50;;;;;;5124973;28;19904;-56
2021/05/26 06:04:26;;;;;;;;;;;24.80;93.50;;;;;;5124914;28;19910;-50
2021/05/26 06:06:52;;;;;;;;;;;24.80;93.50;;;;;;5125004;28;19911;-44
2021/05/26 06:09:20;;;;;;;;;;;24.80;93.50;;;;;;5124979;28;19910;-48
2021/05/26 06:11:47;;;;;;;;;;;24.80;93.50;;;;;;5124628;28;19924;-45
2021/05/26 06:14:14;;;;;;;;;;;24.80;93.50;;;;;;5124632;28;19975;-46
2021/05/26 06:16:40;;;;;;;;;;;24.80;93.50;;;;;;5125266;28;20233;-44
2021/05/26 06:19:06;;;;;;;;;;;24.80;93.50;;;;;;5124759;28;19942;-47
2021/05/26 06:21:33;;;;;;;;;;;24.80;93.50;;;;;;5125540;28;19919;-48
2021/05/26 06:24:00;;;;;;;;;;;24.80;93.50;;;;;;5125044;28;20206;-52
2021/05/26 06:26:30;;;;;;;;;;;24.80;93.40;;;;;;5125480;28;19943;-48
2021/05/26 06:28:58;;;;;;;;;;;24.80;93.40;;;;;;5124512;28;19907;-50
2021/05/26 06:31:24;;;;;;;;;;;24.80;93.40;;;;;;5125069;28;19923;-44
2021/05/26 06:33:50;;;;;;;;;;;24.70;93.40;;;;;;5124204;28;19911;-44
2021/05/26 06:36:16;;;;;;;;;;;24.80;93.40;;;;;;5125063;28;19953;-51
2021/05/26 06:38:42;;;;;;;;;;;24.80;93.60;;;;;;5124623;28;19908;-45
2021/05/26 06:41:10;;;;;;;;;;;24.80;93.40;;;;;;5125112;28;19919;-48
2021/05/26 06:43:36;;;;;;;;;;;24.80;93.30;;;;;;5124419;28;19908;-49
2021/05/26 06:46:02;;;;;;;;;;;24.80;93.30;;;;;;5124868;28;19911;-47
2021/05/26 06:48:28;;;;;;;;;;;24.80;93.40;;;;;;5124604;28;19904;-47
2021/05/26 06:50:54;;;;;;;;;;;24.80;93.40;;;;;;5124596;28;20037;-47
2021/05/26 06:53:21;;;;;;;;;;;24.80;93.30;;;;;;5124431;28;19904;-47
2021/05/26 06:55:47;;;;;;;;;;;24.80;93.30;;;;;;5124899;28;19912;-45
2021/05/26 06:58:13;;;;;;;;;;;24.80;93.30;;;;;;5127158;28;19904;-49
2021/05/26 07:00:39;;;;;;;;;;;24.80;93.40;;;;;;5128455;28;20296;-52
2021/05/26 07:03:05;;;;;;;;;;;24.70;93.30;;;;;;5128157;28;19910;-47
2021/05/26 07:05:32;;;;;;;;;;;24.80;93.40;;;;;;5128756;28;19912;-52
2021/05/26 07:07:59;;;;;;;;;;;24.80;93.40;;;;;;5128206;28;19904;-48
2021/05/26 07:10:25;;;;;;;;;;;24.80;93.40;;;;;;5127740;28;19986;-48
2021/05/26 07:12:51;;;;;;;;;;;24.80;93.40;;;;;;5128124;28;19904;-48
2021/05/26 07:15:18;;;;;;;;;;;24.80;93.40;;;;;;5127885;28;19911;-51
2021/05/26 07:17:45;;;;;;;;;;;24.80;93.40;;;;;;5127959;28;19904;-48
2021/05/26 07:20:13;;;;;;;;;;;24.80;93.40;;;;;;5128132;28;19911;-49
2021/05/26 07:22:39;;;;;;;;;;;24.80;93.40;;;;;;5127878;28;19904;-46
2021/05/26 07:25:06;;;;;;;;;;;24.70;93.40;;;;;;5128008;28;19912;-47
2021/05/26 07:27:32;;;;;;;;;;;24.80;93.40;;;;;;5127738;28;19903;-45
2021/05/26 07:29:58;;;;;;;;;;;24.80;93.40;;;;;;5127699;28;19923;-47
2021/05/26 07:32:24;;;;;;;;;;;24.80;93.40;;;;;;5127515;28;19903;-47
2021/05/26 07:34:50;;;;;;;;;;;24.70;93.40;;;;;;5127670;28;19916;-51
2021/05/26 07:37:17;;;;;;;;;;;24.70;93.40;;;;;;5127581;28;19910;-49
2021/05/26 07:39:43;;;;;;;;;;;24.70;93.40;;;;;;5127675;28;19912;-44
2021/05/26 07:42:12;;;;;;;;;;;24.80;93.40;;;;;;5127348;28;19904;-50
2021/05/26 07:44:39;;;;;;;;;;;24.80;93.50;;;;;;5127362;28;19903;-49
2021/05/26 07:47:06;;;;;;;;;;;24.80;93.40;;;;;;5127254;28;19904;-51
2021/05/26 07:49:32;;;;;;;;;;;24.80;93.40;;;;;;5127287;28;19910;-48
2021/05/26 07:52:03;;;;;;;;;;;24.70;93.50;;;;;;5127150;28;19907;-49
2021/05/26 07:54:29;;;;;;;;;;;24.80;93.50;;;;;;5127223;28;19935;-48
2021/05/26 07:56:58;;;;;;;;;;;24.70;93.40;;;;;;5127340;28;19904;-47
2021/05/26 07:59:24;;;;;;;;;;;24.70;93.50;;;;;;5126941;28;20303;-48
2021/05/26 08:01:50;;;;;;;;;;;24.70;93.50;;;;;;5127187;28;19946;-45
2021/05/26 08:04:16;;;;;;;;;;;24.80;93.50;;;;;;5127106;28;19910;-49
2021/05/26 08:06:43;;;;;;;;;;;24.80;93.50;;;;;;5126813;28;19912;-47
2021/05/26 08:09:09;;;;;;;;;;;24.70;93.50;;;;;;5126728;28;19903;-54
2021/05/26 08:11:35;;;;;;;;;;;24.70;93.50;;;;;;5126674;28;19920;-50
2021/05/26 08:14:01;;;;;;;;;;;24.70;93.50;;;;;;5126725;28;20215;-46
2021/05/26 08:16:27;;;;;;;;;;;24.70;93.50;;;;;;5127331;28;19912;-46
2021/05/26 08:18:54;;;;;;;;;;;24.70;93.50;;;;;;5126973;28;19975;-52
2021/05/26 08:21:20;;;;;;;;;;;24.70;93.50;;;;;;5127420;28;19914;-48
2021/05/26 08:23:46;;;;;;;;;;;24.70;93.50;;;;;;5127222;28;19962;-48
2021/05/26 08:26:32;;;;;;;;;;;24.70;93.50;;;;;;5127150;28;20052;-46
2021/05/26 08:28:58;;;;;;;;;;;24.70;93.50;;;;;;5126513;28;19919;-47
2021/05/26 08:31:24;;;;;;;;;;;24.70;93.50;;;;;;5127295;28;20218;-47
2021/05/26 08:33:51;;;;;;;;;;;24.70;93.50;;;;;;5126458;28;19908;-49
2021/05/26 08:36:17;;;;;;;;;;;24.70;93.50;;;;;;5126483;28;19950;-49
2021/05/26 08:38:43;;;;;;;;;;;24.70;93.50;;;;;;5126452;28;20081;-50
2021/05/26 08:41:11;;;;;;;;;;;24.70;93.50;;;;;;5126717;28;19908;-47
2021/05/26 08:43:39;;;;;;;;;;;24.70;93.50;;;;;;5126525;28;19904;-45
2021/05/26 08:46:06;;;;;;;;;;;24.70;93.50;;;;;;5126553;28;19932;-46
2021/05/26 08:48:33;;;;;;;;;;;24.70;93.50;;;;;;5126307;28;19908;-51
2021/05/26 08:51:00;;;;;;;;;;;24.60;93.40;;;;;;5126376;28;20192;-52
2021/05/26 08:53:27;;;;;;;;;;;24.70;93.50;;;;;;5126038;28;19957;-46
2021/05/26 08:55:54;;;;;;;;;;;24.60;93.40;;;;;;5126277;28;19930;-52
2021/05/26 08:58:20;;;;;;;;;;;24.70;93.50;;;;;;5125863;28;19908;-51
2021/05/26 09:00:47;;;;;;;;;;;24.60;93.40;;;;;;5126453;28;19907;-48
2021/05/26 09:03:14;;;;;;;;;;;24.60;93.40;;;;;;5125884;28;20104;-49
2021/05/26 09:05:42;;;;;;;;;;;24.70;93.40;;;;;;5126151;28;19908;-48
2021/05/26 09:08:11;;;;;;;;;;;24.60;93.40;;;;;;5125911;28;19914;-52
2021/05/26 09:10:54;;;;;;;;;;;24.60;93.40;;;;;;5125909;28;19950;-57
2021/05/26 09:13:27;;;;;;;;;;;24.60;93.40;;;;;;5126449;28;20080;-50
2021/05/26 09:15:53;;;;;;;;;;;24.60;93.40;;;;;;5125915;28;19911;-48
2021/05/26 09:18:19;;;;;;;;;;;24.60;93.40;;;;;;5125406;28;19904;-44
2021/05/26 09:20:46;;;;;;;;;;;24.60;93.40;;;;;;5125090;28;19949;-46
2021/05/26 09:23:17;;;;;;;;;;;24.60;93.40;;;;;;5125537;28;19918;-45
2021/05/26 09:25:46;;;;;;;;;;;24.60;93.40;;;;;;5125624;28;19912;-47
2021/05/26 09:28:33;;;;;;;;;;;24.60;93.40;;;;;;5125696;28;20188;-45
2021/05/26 09:31:03;;;;;;;;;;;24.60;93.40;;;;;;5125535;28;19915;-48
2021/05/26 09:33:33;;;;;;;;;;;24.60;93.40;;;;;;5125490;28;19971;-53
2021/05/26 09:36:12;;;;;;;;;;;24.60;93.40;;;;;;5125556;28;20207;-46
2021/05/26 09:38:43;;;;;;;;;;;24.60;93.40;;;;;;5125453;28;20192;-46
2021/05/26 09:41:13;;;;;;;;;;;24.60;93.40;;;;;;5125351;28;19912;-44
2021/05/26 09:43:43;;;;;;;;;;;24.60;93.40;;;;;;5125205;28;19904;-47
2021/05/26 09:46:19;;;;;;;;;;;24.60;93.40;;;;;;5125537;28;20199;-51
2021/05/26 09:49:04;;;;;;;;;;;24.60;93.30;;;;;;5124994;28;19975;-51
2021/05/26 09:51:31;;;;;;;;;;;24.60;93.30;;;;;;5125434;28;19916;-46
2021/05/26 09:54:08;;;;;;;;;;;24.60;93.40;;;;;;5125041;28;19911;-52
2021/05/26 09:56:34;;;;;;;;;;;24.60;93.30;;;;;;5125537;28;19916;-48
2021/05/26 09:59:07;;;;;;;;;;;24.60;93.30;;;;;;5124974;28;19904;-49
2021/05/26 10:01:34;;;;;;;;;;;24.60;93.30;;;;;;5125323;28;20100;-47
2021/05/26 10:04:00;;;;;;;;;;;24.60;93.30;;;;;;5124980;28;20211;-52
2021/05/26 10:06:28;;;;;;;;;;;24.60;93.30;;;;;;5125411;28;19911;-55
2021/05/26 10:08:55;;;;;;;;;;;24.60;93.30;;;;;;5124758;28;19972;-46
2021/05/26 10:11:26;;;;;;;;;;;24.60;93.30;;;;;;5124701;28;19920;-46
2021/05/26 10:13:52;;;;;;;;;;;24.50;93.20;;;;;;5124692;28;19946;-53
2021/05/26 10:16:19;;;;;;;;;;;24.50;93.30;;;;;;5125163;28;19943;-51
2021/05/26 10:18:45;;;;;;;;;;;24.50;93.30;;;;;;5124814;28;19904;-49
2021/05/26 10:21:15;;;;;;;;;;;24.50;93.20;;;;;;5124573;28;19935;-53
2021/05/26 10:23:42;;;;;;;;;;;24.50;93.20;;;;;;5124490;28;19939;-44
2021/05/26 10:26:08;;;;;;;;;;;24.50;93.30;;;;;;5124889;28;20135;-45
2021/05/26 10:28:34;;;;;;;;;;;24.50;93.30;;;;;;5124499;28;20065;-44
2021/05/26 10:31:02;;;;;;;;;;;24.50;93.20;;;;;;5124794;28;19916;-48
2021/05/26 10:33:43;;;;;;;;;;;24.50;93.30;;;;;;5128885;28;20188;-47
2021/05/26 10:36:14;;;;;;;;;;;24.50;93.30;;;;;;5128965;28;20009;-49
2021/05/26 10:39:00;;;;;;;;;;;24.50;93.30;;;;;;5128885;28;20055;-47
2021/05/26 10:41:46;;;;;;;;;;;24.50;93.20;;;;;;5128755;28;19918;-46
2021/05/26 10:44:12;;;;;;;;;;;24.50;93.20;;;;;;5128566;28;20192;-50
2021/05/26 10:46:41;;;;;;;;;;;24.50;93.20;;;;;;5129303;28;19942;-52
2021/05/26 10:49:16;;;;;;;;;;;24.50;93.20;;;;;;5128619;28;19904;-48
2021/05/26 10:51:56;;;;;;;;;;;24.50;93.20;;;;;;5128999;28;19961;-49
2021/05/26 10:54:40;;;;;;;;;;;24.50;93.20;;;;;;5128206;28;19903;-47
2021/05/26 10:57:07;;;;;;;;;;;24.50;93.20;;;;;;5128473;28;19919;-46
2021/05/26 10:59:34;;;;;;;;;;;24.50;93.20;;;;;;5128262;28;20315;-47
2021/05/26 11:02:03;;;;;;;;;;;24.50;93.20;;;;;;5128371;28;19966;-51
2021/05/26 11:04:36;;;;;;;;;;;24.50;93.20;;;;;;5127894;28;19907;-46
2021/05/26 11:07:19;;;;;;;;;;;24.50;93.10;;;;;;5128188;28;19903;-43
2021/05/26 11:09:54;;;;;;;;;;;24.50;93.30;;;;;;5127718;28;19954;-50
2021/05/26 11:12:20;;;;;;;;;;;24.60;93.10;;;;;;5128346;28;20140;-56
2021/05/26 11:14:53;;;;;;;;;;;24.60;93.00;;;;;;5128157;28;19938;-50
2021/05/26 11:17:21;;;;;;;;;;;24.70;92.90;;;;;;5127820;28;19907;-45
2021/05/26 11:19:48;;;;;;;;;;;24.80;92.60;;;;;;5128004;28;19912;-46
2021/05/26 11:22:16;;;;;;;;;;;25.00;92.40;;;;;;5127957;28;19910;-47
2021/05/26 11:24:48;;;;;;;;;;;25.10;92.20;;;;;;5128111;28;19981;-44
2021/05/26 11:27:18;;;;;;;;;;;25.30;92.10;;;;;;5127523;28;19908;-44
2021/05/26 11:29:44;;;;;;;;;;;25.30;91.90;;;;;;5128124;28;20164;-46
2021/05/26 11:32:15;;;;;;;;;;;25.40;91.80;;;;;;5127719;28;19912;-47
2021/05/26 11:34:42;;;;;;;;;;;25.50;91.80;;;;;;5127631;28;19911;-57
2021/05/26 11:37:09;;;;;;;;;;;25.40;91.90;;;;;;5109316;28;20100;-51
2021/05/26 11:39:36;;;;;;;;;;;25.50;92.00;;;;;;5128097;28;19941;-46
2021/05/26 11:42:19;;;;;;;;;;;25.50;91.90;;;;;;5127754;28;20095;-45
2021/05/26 11:44:47;;;;;;;;;;;25.60;91.90;;;;;;5127569;28;19912;-51
2021/05/26 11:47:13;;;;;;;;;;;25.70;91.80;;;;;;5127444;28;19904;-46
2021/05/26 11:49:40;;;;;;;;;;;25.80;91.60;;;;;;5127310;28;19911;-43
2021/05/26 11:52:10;;;;;;;;;;;25.80;91.50;;;;;;5127066;28;19990;-45
2021/05/26 11:54:56;;;;;;;;;;;25.90;91.60;;;;;;5127324;28;19945;-47
2021/05/26 11:57:32;;;;;;;;;;;25.90;91.50;;;;;;5109567;28;19945;-45
2021/05/26 11:59:59;;;;;;;;;;;25.90;91.50;;;;;;5127294;28;20247;-43
2021/05/26 12:02:25;;;;;;;;;;;26.00;91.60;;;;;;5126998;28;19904;-47
2021/05/26 12:04:52;;;;;;;;;;;26.00;91.60;;;;;;5127237;28;19933;-47
2021/05/26 12:07:25;;;;;;;;;;;26.00;91.70;;;;;;5127214;28;20232;-50
2021/05/26 12:09:56;;;;;;;;;;;26.00;91.50;;;;;;5126756;28;19970;-47
2021/05/26 12:12:22;;;;;;;;;;;26.00;91.60;;;;;;5126988;28;19942;-54
2021/05/26 12:14:49;;;;;;;;;;;26.10;91.70;;;;;;5127089;28;19920;-59
2021/05/26 12:17:16;;;;;;;;;;;26.10;91.70;;;;;;5126826;28;19904;-66
2021/05/26 12:19:46;;;;;;;;;;;26.20;91.80;;;;;;5127121;28;19908;-47
2021/05/26 12:22:19;;;;;;;;;;;26.20;91.70;;;;;;5126785;28;20005;-46
2021/05/26 12:24:55;;;;;;;;;;;26.30;91.80;;;;;;5126649;28;20084;-54
2021/05/26 12:27:35;;;;;;;;;;;26.30;91.70;;;;;;5126802;28;19937;-49
2021/05/26 12:30:29;;;;;;;;;;;26.30;91.70;;;;;;5126382;28;19919;-44
2021/05/26 12:33:11;;;;;;;;;;;26.30;91.70;;;;;;5126684;28;20201;-52
2021/05/26 12:35:38;;;;;;;;;;;26.40;91.80;;;;;;5108295;28;19965;-46
2021/05/26 12:38:15;;;;;;;;;;;26.40;91.70;;;;;;5126429;28;19984;-45
2021/05/26 12:40:41;;;;;;;;;;;26.40;91.80;;;;;;5126867;28;19908;-45
2021/05/26 12:43:21;;;;;;;;;;;26.50;91.80;;;;;;5107989;28;19922;-44
2021/05/26 12:45:47;;;;;;;;;;;26.50;91.80;;;;;;5126199;28;20235;-43
2021/05/26 12:48:14;;;;;;;;;;;26.50;91.70;;;;;;5126246;28;19908;-46
2021/05/26 12:50:41;;;;;;;;;;;26.50;91.70;;;;;;5107658;28;19919;-46
2021/05/26 12:53:11;;;;;;;;;;;26.60;91.70;;;;;;5125906;28;19908;-46
2021/05/26 12:55:38;;;;;;;;;;;26.60;91.80;;;;;;5125412;28;19911;-49
2021/05/26 12:58:14;;;;;;;;;;;26.60;91.90;;;;;;5125897;28;19904;-49
2021/05/26 13:00:41;;;;;;;;;;;26.60;91.90;;;;;;5126454;28;19908;-50
2021/05/26 13:03:12;;;;;;;;;;;26.60;91.90;;;;;;5126031;28;19908;-47
2021/05/26 13:05:39;;;;;;;;;;;26.60;91.90;;;;;;5107868;28;19907;-48
2021/05/26 13:08:09;;;;;;;;;;;26.60;91.90;;;;;;5125982;28;19915;-45
2021/05/26 13:10:45;;;;;;;;;;;26.60;91.90;;;;;;5126166;28;19942;-48
2021/05/26 13:13:17;;;;;;;;;;;26.60;92.00;;;;;;5125789;28;19904;-47
2021/05/26 13:15:44;;;;;;;;;;;26.70;92.00;;;;;;5126295;28;19911;-47
2021/05/26 13:18:10;;;;;;;;;;;26.70;92.00;;;;;;5125824;28;19904;-48
2021/05/26 13:20:37;;;;;;;;;;;26.70;92.00;;;;;;5125995;28;19919;-47
2021/05/26 13:23:05;;;;;;;;;;;26.80;92.10;;;;;;5125571;28;19979;-49
2021/05/26 13:25:35;;;;;;;;;;;26.80;92.10;;;;;;5125753;28;19912;-58
2021/05/26 13:28:03;;;;;;;;;;;26.80;92.10;;;;;;5107374;28;19949;-45
2021/05/26 13:30:30;;;;;;;;;;;26.90;92.10;;;;;;5125735;28;19916;-48
2021/05/26 13:32:57;;;;;;;;;;;26.90;92.00;;;;;;5125203;28;19910;-48
2021/05/26 13:35:24;;;;;;;;;;;26.90;92.00;;;;;;5125360;28;20179;-48
2021/05/26 13:37:50;;;;;;;;;;;26.90;92.00;;;;;;5125499;28;19978;-52
2021/05/26 13:40:17;;;;;;;;;;;26.90;91.90;;;;;;5125179;28;19911;-51
2021/05/26 13:42:44;;;;;;;;;;;27.00;91.70;;;;;;5125006;28;20061;-51
2021/05/26 13:45:11;;;;;;;;;;;27.00;91.60;;;;;;5125304;28;19912;-49
2021/05/26 13:47:37;;;;;;;;;;;27.10;91.20;;;;;;5125086;28;20196;-54
2021/05/26 13:50:04;;;;;;;;;;;27.10;91.40;;;;;;5125164;28;20021;-53
2021/05/26 13:52:31;;;;;;;;;;;27.10;91.50;;;;;;5125216;28;19935;-47
2021/05/26 13:54:58;;;;;;;;;;;27.10;91.40;;;;;;5124839;28;20091;-49
2021/05/26 13:57:24;;;;;;;;;;;27.20;91.10;;;;;;5124931;28;20184;-53
2021/05/26 13:59:50;;;;;;;;;;;27.20;91.10;;;;;;5125082;28;20325;-49
2021/05/26 14:02:17;;;;;;;;;;;27.20;91.00;;;;;;5107001;28;19903;-49
2021/05/26 14:04:43;;;;;;;;;;;27.20;91.20;;;;;;5125057;28;19919;-46
2021/05/26 14:07:09;;;;;;;;;;;27.20;91.30;;;;;;5106585;28;19915;-49
2021/05/26 14:09:35;;;;;;;;;;;27.30;91.30;;;;;;5124840;28;20127;-51
2021/05/26 14:12:02;;;;;;;;;;;27.30;91.00;;;;;;5124854;28;19954;-45
2021/05/26 14:14:30;;;;;;;;;;;27.30;91.10;;;;;;5124748;28;19904;-53
2021/05/26 14:16:56;;;;;;;;;;;27.30;91.10;;;;;;5106505;28;20196;-43
2021/05/26 14:19:23;;;;;;;;;;;27.30;90.90;;;;;;5124566;28;19903;-46
2021/05/26 14:21:49;;;;;;;;;;;27.30;91.00;;;;;;5124785;28;19953;-51